Time;durP1;ratioP1;P1;durP2;ratioP2;P2;SDS_P1;SDS_P2;PMS_P1;PMS_P2;Temp;Humidity;BMP_temperature;BMP_pressure;BME280_temperature;BME280_humidity;BME280_pressure;Samples;Min_cycle;Max_cycle;Signal;HPM_P1;HPM_P2
2023/09/13 00:02:00;;;;;;;11.15;6.43;;;18.20;99.90;;;;;;8151550;29;20024;-83
2023/09/13 00:06:00;;;;;;;12.30;6.57;;;18.20;99.90;;;;;;8151700;29;20020;-83
2023/09/13 00:10:01;;;;;;;11.02;6.28;;;17.90;99.90;;;;;;8151556;29;20020;-83
2023/09/13 00:14:02;;;;;;;8.05;6.32;;;17.80;99.90;;;;;;8150793;29;20114;-83
2023/09/13 00:18:02;;;;;;;8.32;6.35;;;17.50;99.90;;;;;;8136875;29;20027;-83
2023/09/13 00:22:03;;;;;;;9.30;5.65;;;17.50;99.90;;;;;;8152379;29;20028;-83
2023/09/13 00:26:04;;;;;;;7.88;5.93;;;17.50;99.90;;;;;;8137325;29;20039;-83
2023/09/13 00:30:08;;;;;;;10.98;6.05;;;17.50;99.90;;;;;;8136794;29;20036;-83
2023/09/13 00:34:09;;;;;;;12.07;5.68;;;17.40;99.90;;;;;;8151017;29;20420;-83
2023/09/13 00:38:09;;;;;;;10.63;5.57;;;17.30;99.90;;;;;;8136820;29;20038;-83
2023/09/13 00:42:10;;;;;;;9.82;5.80;;;17.20;99.90;;;;;;8151337;29;20404;-83
2023/09/13 00:46:11;;;;;;;10.25;5.63;;;17.20;99.90;;;;;;8136273;29;20027;-83
2023/09/13 00:50:15;;;;;;;9.93;6.53;;;17.10;99.90;;;;;;8150936;29;20031;-83
2023/09/13 00:54:16;;;;;;;11.27;6.50;;;17.00;99.90;;;;;;8135293;29;20055;-83
2023/09/13 00:58:18;;;;;;;8.57;6.20;;;17.00;99.90;;;;;;8150919;29;20028;-83
2023/09/13 01:02:18;;;;;;;10.27;6.47;;;17.00;99.90;;;;;;8150678;29;20485;-83
2023/09/13 01:06:19;;;;;;;10.27;6.18;;;16.90;99.90;;;;;;8135898;29;20038;-83
2023/09/13 01:10:20;;;;;;;8.85;6.05;;;16.80;99.90;;;;;;8150504;29;20035;-83
2023/09/13 01:14:21;;;;;;;10.13;6.38;;;16.80;99.90;;;;;;8149751;29;20087;-83
2023/09/13 01:18:28;;;;;;;9.32;6.43;;;16.90;99.90;;;;;;8134204;29;20076;-83
2023/09/13 01:22:44;;;;;;;9.23;6.57;;;16.90;99.90;;;;;;8150533;29;20020;-83
2023/09/13 01:27:22;;;;;;;10.73;6.13;;;16.90;99.90;;;;;;8158227;29;20388;-83
2023/09/13 01:31:24;;;;;;;7.18;5.75;;;17.00;99.90;;;;;;8151467;29;20020;-83
2023/09/13 01:35:25;;;;;;;9.65;6.25;;;17.10;99.90;;;;;;8156282;29;20035;-83
2023/09/13 01:39:25;;;;;;;8.85;6.60;;;17.40;99.90;;;;;;8156181;29;20468;-82
2023/09/13 01:43:26;;;;;;;11.10;6.22;;;17.40;99.90;;;;;;8156574;29;20035;-83
2023/09/13 01:47:29;;;;;;;8.50;6.70;;;17.30;99.90;;;;;;8156233;29;20040;-83
2023/09/13 01:51:31;;;;;;;7.03;6.05;;;17.20;99.90;;;;;;8141495;29;20063;-83
2023/09/13 01:55:36;;;;;;;8.25;5.78;;;17.30;99.90;;;;;;8155855;29;20070;-83
2023/09/13 01:59:36;;;;;;;8.10;5.45;;;17.50;99.90;;;;;;8141211;29;20035;-82
2023/09/13 02:03:37;;;;;;;8.23;5.55;;;17.40;99.90;;;;;;8139451;29;20026;-83
2023/09/13 02:07:37;;;;;;;8.05;5.60;;;17.30;99.90;;;;;;8142845;29;20044;-83
2023/09/13 02:11:38;;;;;;;7.43;5.82;;;17.30;99.90;;;;;;8158656;29;20035;-83
2023/09/13 02:15:39;;;;;;;12.35;6.20;;;17.20;99.90;;;;;;8154567;29;20038;-83
2023/09/13 02:19:40;;;;;;;7.30;5.22;;;17.10;99.90;;;;;;8155018;29;20168;-83
2023/09/13 02:23:42;;;;;;;8.65;5.18;;;17.20;99.90;;;;;;8140387;29;20484;-83
2023/09/13 02:27:42;;;;;;;7.45;5.25;;;17.10;99.90;;;;;;8140592;29;20020;-83
2023/09/13 02:31:43;;;;;;;7.18;5.40;;;17.00;99.90;;;;;;8155532;29;20024;-83
2023/09/13 02:35:47;;;;;;;9.95;5.82;;;17.20;99.90;;;;;;8153671;29;20020;-83
2023/09/13 02:39:47;;;;;;;9.23;5.90;;;17.20;99.90;;;;;;8139884;29;20040;-83
2023/09/13 02:43:48;;;;;;;7.30;5.68;;;17.20;99.90;;;;;;8154507;29;20024;-83
2023/09/13 02:47:48;;;;;;;8.63;6.32;;;17.10;99.90;;;;;;8154289;29;20075;-83
2023/09/13 02:51:49;;;;;;;9.27;6.00;;;17.00;99.90;;;;;;8154386;29;20436;-83
2023/09/13 02:55:49;;;;;;;14.68;7.20;;;16.90;99.90;;;;;;8153958;29;20028;-83
2023/09/13 02:59:51;;;;;;;11.07;7.53;;;17.00;99.90;;;;;;8138980;29;20514;-83
2023/09/13 03:03:51;;;;;;;11.63;7.80;;;17.10;99.90;;;;;;8153472;29;20030;-83
2023/09/13 03:07:53;;;;;;;8.60;7.03;;;17.30;99.90;;;;;;8153418;29;20020;-83
2023/09/13 03:11:54;;;;;;;10.07;7.03;;;17.40;99.90;;;;;;8153572;29;20028;-83
2023/09/13 03:15:54;;;;;;;13.43;7.50;;;17.40;99.90;;;;;;8152675;29;20638;-83
2023/09/13 03:19:55;;;;;;;11.73;8.02;;;17.40;99.90;;;;;;8153004;29;20027;-83
2023/09/13 03:23:55;;;;;;;8.77;6.68;;;17.50;99.90;;;;;;8153380;29;20397;-83
2023/09/13 03:27:56;;;;;;;10.90;6.82;;;17.40;99.90;;;;;;8153133;29;20020;-83
2023/09/13 03:31:56;;;;;;;9.32;7.10;;;17.40;99.90;;;;;;8138523;29;20032;-83
2023/09/13 03:35:57;;;;;;;8.25;6.45;;;17.20;99.90;;;;;;8152760;29;20024;-83
2023/09/13 03:39:57;;;;;;;10.75;7.05;;;17.20;99.90;;;;;;8152680;29;20024;-83
2023/09/13 03:43:58;;;;;;;10.75;6.82;;;17.10;99.90;;;;;;8152640;29;20115;-83
2023/09/13 03:47:58;;;;;;;14.25;7.60;;;17.30;99.90;;;;;;8136958;29;20091;-83
2023/09/13 03:52:01;;;;;;;11.65;7.57;;;17.20;99.90;;;;;;8152531;29;20036;-84
2023/09/13 03:56:03;;;;;;;7.88;6.90;;;17.00;99.90;;;;;;8152313;29;20059;-83
2023/09/13 04:00:12;;;;;;;12.77;7.57;;;16.90;99.90;;;;;;8152183;29;20035;-84
2023/09/13 04:04:13;;;;;;;10.75;8.05;;;16.70;99.90;;;;;;8134549;29;20024;-82
2023/09/13 04:08:13;;;;;;;10.43;7.38;;;16.70;99.90;;;;;;8151293;29;20079;-83
2023/09/13 04:12:14;;;;;;;11.50;8.50;;;16.60;99.90;;;;;;8151367;29;20043;-83
2023/09/13 04:16:16;;;;;;;10.90;8.15;;;16.40;99.90;;;;;;8149172;29;20076;-82
2023/09/13 04:20:17;;;;;;;13.40;8.25;;;16.30;99.90;;;;;;8150274;29;20036;-83
2023/09/13 04:24:17;;;;;;;11.65;7.75;;;16.10;99.90;;;;;;8137083;29;20051;-82
2023/09/13 04:28:18;;;;;;;13.65;7.57;;;16.10;99.90;;;;;;8151741;29;20034;-82
2023/09/13 04:32:19;;;;;;;9.93;8.00;;;15.90;99.90;;;;;;8149258;29;20086;-79
2023/09/13 04:36:20;;;;;;;12.48;8.05;;;15.80;99.90;;;;;;8148802;29;20184;-79
2023/09/13 04:40:21;;;;;;;11.27;7.85;;;15.90;99.90;;;;;;8148984;29;20035;-79
2023/09/13 04:44:22;;;;;;;11.93;8.80;;;15.90;99.90;;;;;;8150572;29;20024;-78
2023/09/13 04:48:22;;;;;;;12.55;8.50;;;15.70;99.90;;;;;;8134145;29;20032;-80
2023/09/13 04:52:23;;;;;;;14.65;9.63;;;15.50;99.90;;;;;;8143314;29;20036;-79
2023/09/13 04:56:23;;;;;;;14.82;10.20;;;15.40;99.90;;;;;;8150091;29;20504;-79
2023/09/13 05:00:26;;;;;;;12.20;10.00;;;15.30;99.90;;;;;;8131895;29;20036;-79
2023/09/13 05:04:27;;;;;;;12.90;9.50;;;15.20;99.90;;;;;;8147693;29;20028;-80
2023/09/13 05:08:27;;;;;;;13.23;9.85;;;15.20;99.90;;;;;;8133593;29;20107;-79
2023/09/13 05:12:28;;;;;;;12.43;9.45;;;15.10;99.90;;;;;;8134036;29;20016;-79
2023/09/13 05:16:28;;;;;;;13.07;9.55;;;15.10;99.90;;;;;;8148576;29;20133;-78
2023/09/13 05:20:29;;;;;;;12.88;9.02;;;15.10;99.90;;;;;;8148255;29;20063;-79
2023/09/13 05:24:29;;;;;;;14.70;9.98;;;15.10;99.90;;;;;;8148117;29;20034;-79
2023/09/13 05:28:34;;;;;;;19.45;12.00;;;15.10;99.90;;;;;;8151028;29;20020;-79
2023/09/13 05:32:34;;;;;;;17.70;10.57;;;15.10;99.90;;;;;;8147453;29;20064;-79
2023/09/13 05:36:35;;;;;;;14.77;9.98;;;15.20;99.90;;;;;;8147887;29;20062;-79
2023/09/13 05:40:35;;;;;;;16.20;10.30;;;15.40;99.90;;;;;;8146756;29;20058;-79
2023/09/13 05:44:36;;;;;;;11.48;9.13;;;15.60;99.90;;;;;;8132254;29;20107;-79
2023/09/13 05:48:37;;;;;;;11.38;9.10;;;15.90;99.90;;;;;;8132720;29;20039;-79
2023/09/13 05:52:39;;;;;;;12.15;9.20;;;16.30;99.90;;;;;;8132606;29;20420;-80
2023/09/13 05:56:43;;;;;;;12.85;8.45;;;16.70;99.90;;;;;;8146307;29;20043;-79
2023/09/13 06:00:47;;;;;;;12.45;7.85;;;17.20;99.90;;;;;;8130785;29;20039;-79
2023/09/13 06:04:48;;;;;;;10.98;8.18;;;17.10;99.90;;;;;;8147693;29;20063;-79
2023/09/13 06:08:48;;;;;;;12.00;8.32;;;17.10;99.90;;;;;;8130713;29;20068;-79
2023/09/13 06:12:49;;;;;;;14.82;8.38;;;17.00;99.90;;;;;;8149756;29;20044;-80
2023/09/13 06:16:49;;;;;;;12.65;8.20;;;16.90;99.90;;;;;;8152499;29;20046;-79
2023/09/13 06:20:50;;;;;;;12.50;8.55;;;16.90;99.90;;;;;;8153576;29;20052;-80
2023/09/13 06:24:50;;;;;;;10.23;8.25;;;17.10;99.90;;;;;;8137884;29;20028;-79
2023/09/13 06:28:51;;;;;;;14.25;8.77;;;17.30;99.90;;;;;;8137239;29;20067;-79
2023/09/13 06:32:53;;;;;;;13.27;8.13;;;17.50;99.90;;;;;;8151504;29;20024;-79
2023/09/13 06:36:55;;;;;;;12.98;8.35;;;17.90;99.90;;;;;;8152430;29;20079;-79
2023/09/13 06:40:55;;;;;;;11.48;7.88;;;18.10;99.90;;;;;;8151949;29;20030;-80
2023/09/13 06:44:57;;;;;;;9.98;7.72;;;18.90;99.90;;;;;;8152273;29;20405;-78
2023/09/13 06:48:58;;;;;;;12.95;8.50;;;19.20;99.90;;;;;;8151059;29;20382;-78
2023/09/13 06:52:58;;;;;;;11.35;7.90;;;19.40;99.90;;;;;;8137870;29;20024;-79
2023/09/13 06:56:59;;;;;;;10.98;8.23;;;19.40;99.90;;;;;;8151151;29;20059;-79
2023/09/13 07:00:59;;;;;;;12.75;8.55;;;19.60;99.90;;;;;;8149976;29;20455;-80
2023/09/13 07:05:00;;;;;;;11.57;7.60;;;20.10;99.90;;;;;;8127609;29;20035;-80
2023/09/13 07:09:01;;;;;;;10.98;7.20;;;20.60;99.90;;;;;;8153090;29;20024;-80
2023/09/13 07:13:02;;;;;;;10.65;7.57;;;20.80;99.90;;;;;;8151849;29;20055;-80
2023/09/13 07:17:03;;;;;;;11.10;6.82;;;21.20;99.90;;;;;;8154230;29;20024;-81
2023/09/13 07:21:04;;;;;;;8.38;6.50;;;21.50;99.90;;;;;;8135934;29;20036;-80
2023/09/13 07:25:05;;;;;;;7.47;6.18;;;22.00;99.90;;;;;;8136869;29;20072;-80
2023/09/13 07:29:05;;;;;;;8.05;6.30;;;22.10;99.90;;;;;;8151771;29;20036;-81
2023/09/13 07:33:06;;;;;;;8.68;6.15;;;22.50;99.90;;;;;;8151459;29;20047;-80
2023/09/13 07:37:06;;;;;;;9.20;5.82;;;22.40;99.90;;;;;;8151831;29;20419;-80
2023/09/13 07:41:07;;;;;;;7.10;5.57;;;22.20;99.90;;;;;;8137324;29;20036;-80
2023/09/13 07:45:08;;;;;;;7.78;5.50;;;22.20;99.90;;;;;;8136874;29;20117;-79
2023/09/13 07:49:09;;;;;;;20.63;6.28;;;22.40;99.90;;;;;;8136498;29;20040;-79
2023/09/13 07:53:10;;;;;;;6.60;5.80;;;22.20;99.90;;;;;;8151275;29;20167;-79
2023/09/13 07:57:11;;;;;;;7.85;5.55;;;22.50;99.90;;;;;;8136274;29;20031;-80
2023/09/13 08:01:11;;;;;;;10.25;5.78;;;22.80;99.90;;;;;;8151167;29;20038;-79
2023/09/13 08:05:12;;;;;;;9.35;6.03;;;22.40;99.90;;;;;;8151435;29;20028;-80
2023/09/13 08:09:16;;;;;;;9.73;5.57;;;22.40;99.90;;;;;;8140370;29;20067;-80
2023/09/13 08:13:21;;;;;;;6.00;5.40;;;22.70;99.90;;;;;;8135967;29;20589;-80
2023/09/13 08:17:21;;;;;;;9.55;5.43;;;22.70;99.90;;;;;;8134730;29;20027;-79
2023/09/13 08:21:22;;;;;;;8.15;5.60;;;22.40;99.90;;;;;;8151144;29;20028;-79
2023/09/13 08:25:22;;;;;;;8.60;5.28;;;22.20;99.90;;;;;;8135996;29;20032;-80
2023/09/13 08:29:23;;;;;;;12.52;5.50;;;22.10;99.90;;;;;;8134611;29;20131;-79
2023/09/13 08:33:24;;;;;;;10.60;5.50;;;21.70;99.90;;;;;;8135442;29;20073;-79
2023/09/13 08:37:24;;;;;;;13.70;6.45;;;21.70;99.90;;;;;;8135583;29;20038;-80
2023/09/13 08:41:25;;;;;;;10.98;6.20;;;21.40;99.90;;;;;;8136499;29;20044;-81
2023/09/13 08:45:26;;;;;;;8.90;6.15;;;21.60;99.90;;;;;;8150098;29;20496;-80
2023/09/13 08:49:27;;;;;;;12.10;7.50;;;21.70;99.90;;;;;;8150001;29;20032;-79
2023/09/13 08:53:29;;;;;;;12.40;7.38;;;21.90;99.90;;;;;;8149160;29;20108;-80
2023/09/13 08:57:31;;;;;;;23.02;13.27;;;21.60;99.90;;;;;;8135762;29;20043;-79
2023/09/13 09:01:31;;;;;;;14.88;7.70;;;21.50;99.90;;;;;;8150226;29;20031;-80
2023/09/13 09:05:33;;;;;;;7.90;5.88;;;21.70;99.90;;;;;;8123091;29;20036;-80
2023/09/13 09:09:34;;;;;;;13.70;6.93;;;21.60;99.90;;;;;;8146592;29;20028;-78
2023/09/13 09:13:37;;;;;;;8.75;6.15;;;21.60;99.90;;;;;;8147405;29;20036;-80
2023/09/13 09:17:40;;;;;;;9.23;7.32;;;22.00;99.90;;;;;;8150216;29;20028;-80
2023/09/13 09:21:41;;;;;;;13.80;10.77;;;22.20;99.90;;;;;;8140067;29;20492;-79
2023/09/13 09:25:44;;;;;;;10.20;6.28;;;22.30;99.90;;;;;;8149443;29;20111;-79
2023/09/13 09:29:45;;;;;;;9.15;5.97;;;22.20;99.90;;;;;;8148872;29;20039;-78
2023/09/13 09:33:46;;;;;;;9.07;4.63;;;22.20;99.90;;;;;;8149390;29;20488;-79
2023/09/13 09:37:47;;;;;;;7.82;4.75;;;22.10;99.90;;;;;;8149553;29;20024;-79
2023/09/13 09:41:47;;;;;;;6.10;5.47;;;22.30;99.90;;;;;;8149455;29;20080;-80
2023/09/13 09:45:48;;;;;;;9.57;5.93;;;22.20;99.90;;;;;;8150638;29;20053;-79
2023/09/13 09:49:52;;;;;;;8.05;5.47;;;22.40;99.90;;;;;;8140531;29;20393;-79
2023/09/13 09:53:53;;;;;;;6.80;4.88;;;22.20;99.90;;;;;;8139932;29;20064;-79
2023/09/13 09:57:54;;;;;;;8.90;5.22;;;21.80;99.90;;;;;;8137696;29;20506;-80
2023/09/13 10:01:59;;;;;;;6.88;4.53;;;21.80;99.90;;;;;;8139971;29;20028;-80
2023/09/13 10:06:10;;;;;;;10.98;6.00;;;21.60;99.90;;;;;;8138070;29;20024;-80
2023/09/13 10:10:28;;;;;;;8.48;5.43;;;21.40;99.90;;;;;;8153395;29;20032;-80
2023/09/13 10:14:29;;;;;;;7.10;5.47;;;21.30;99.90;;;;;;8139076;29;20561;-79
2023/09/13 10:18:35;;;;;;;10.38;5.13;;;21.20;99.90;;;;;;8154346;29;20036;-79
2023/09/13 10:22:39;;;;;;;9.77;5.15;;;21.20;99.90;;;;;;8154521;29;20059;-79
2023/09/13 10:26:40;;;;;;;9.40;5.32;;;21.20;99.90;;;;;;8153804;29;20031;-80
2023/09/13 10:30:45;;;;;;;9.00;5.75;;;21.00;99.90;;;;;;8139110;29;20059;-79
2023/09/13 10:34:50;;;;;;;7.85;5.65;;;20.90;99.90;;;;;;8138658;29;20052;-78
2023/09/13 10:39:07;;;;;;;6.10;5.28;;;20.60;99.90;;;;;;8138537;29;20023;-79
2023/09/13 10:43:08;;;;;;;8.50;5.68;;;20.30;99.90;;;;;;8138395;29;20083;-81
2023/09/13 10:47:10;;;;;;;7.10;5.13;;;20.40;99.90;;;;;;8138535;29;20488;-79
2023/09/13 10:51:12;;;;;;;11.65;6.13;;;20.80;99.90;;;;;;8137295;29;20039;-78
2023/09/13 10:55:13;;;;;;;7.40;5.40;;;21.20;99.90;;;;;;8137529;29;20059;-79
2023/09/13 10:59:17;;;;;;;9.13;5.40;;;21.40;99.90;;;;;;8152389;29;20609;-79
2023/09/13 11:03:18;;;;;;;7.57;5.00;;;21.70;99.90;;;;;;8152201;29;20029;-79
2023/09/13 11:07:18;;;;;;;5.30;4.80;;;22.10;99.90;;;;;;8152111;29;20028;-80
2023/09/13 11:11:21;;;;;;;6.30;5.20;;;22.50;99.90;;;;;;8154705;29;20032;-81
2023/09/13 11:15:24;;;;;;;7.22;5.35;;;23.00;99.90;;;;;;8139233;29;20048;-80
2023/09/13 11:19:28;;;;;;;8.20;5.00;;;23.30;99.90;;;;;;8152197;29;20059;-79
2023/09/13 11:23:42;;;;;;;9.73;5.97;;;23.60;99.90;;;;;;8152329;29;20029;-80
2023/09/13 11:27:43;;;;;;;8.65;5.68;;;23.70;99.90;;;;;;8137843;29;20076;-79
2023/09/13 11:32:06;;;;;;;9.80;5.90;;;24.00;99.90;;;;;;8137988;29;20477;-79
2023/09/13 11:36:08;;;;;;;8.80;6.30;;;24.00;99.90;;;;;;8137295;29;20084;-79
2023/09/13 11:40:10;;;;;;;7.65;6.00;;;23.90;99.90;;;;;;8137325;29;20500;-80
2023/09/13 11:44:12;;;;;;;7.00;5.22;;;23.80;99.90;;;;;;8151405;28;20429;-79
2023/09/13 11:48:12;;;;;;;6.85;5.75;;;23.90;99.90;;;;;;8133774;29;20063;-80
2023/09/13 11:52:13;;;;;;;6.22;5.13;;;23.90;99.90;;;;;;8150535;29;20084;-79
2023/09/13 11:56:37;;;;;;;6.72;5.53;;;23.90;99.90;;;;;;8135360;29;20099;-79
2023/09/13 12:00:41;;;;;;;9.23;6.32;;;23.90;99.90;;;;;;8147040;29;20400;-80
2023/09/13 12:04:43;;;;;;;6.50;5.75;;;24.00;99.90;;;;;;8150569;29;20480;-80
2023/09/13 12:08:47;;;;;;;6.90;5.15;;;24.70;99.90;;;;;;8135632;29;20038;-80
2023/09/13 12:12:47;;;;;;;6.63;5.50;;;24.90;99.90;;;;;;8142987;29;20020;-80
2023/09/13 12:16:52;;;;;;;6.47;5.43;;;24.80;99.90;;;;;;8134378;29;20106;-80
2023/09/13 12:20:57;;;;;;;7.57;5.55;;;25.00;99.90;;;;;;8135447;29;20544;-80
2023/09/13 12:24:59;;;;;;;7.10;6.07;;;25.30;99.90;;;;;;8137200;29;20378;-81
2023/09/13 12:29:00;;;;;;;10.27;5.68;;;25.40;99.90;;;;;;8150637;29;20028;-80
2023/09/13 12:33:02;;;;;;;7.45;5.40;;;25.70;99.90;;;;;;8148993;29;20025;-80
2023/09/13 12:37:03;;;;;;;8.13;5.78;;;26.10;99.90;;;;;;8147218;29;20032;-80
2023/09/13 12:41:04;;;;;;;7.60;5.93;;;26.60;99.90;;;;;;8134709;29;20024;-80
2023/09/13 12:45:05;;;;;;;7.68;5.00;;;27.00;99.90;;;;;;8133729;29;20040;-80
2023/09/13 12:49:07;;;;;;;6.47;5.05;;;27.20;99.90;;;;;;8134478;29;20038;-79
2023/09/13 12:53:08;;;;;;;4.88;4.00;;;26.40;99.90;;;;;;8134883;29;20036;-80
2023/09/13 12:57:10;;;;;;;5.20;4.60;;;26.30;99.90;;;;;;8133235;29;20064;-80
2023/09/13 13:01:10;;;;;;;7.15;4.85;;;26.10;99.90;;;;;;8135060;29;20032;-79
2023/09/13 13:05:13;;;;;;;5.93;4.75;;;25.90;99.90;;;;;;8155866;28;20480;-82
2023/09/13 13:09:21;;;;;;;6.55;4.93;;;25.60;99.90;;;;;;8135733;29;20028;-77
2023/09/13 13:13:30;;;;;;;6.45;5.13;;;24.90;99.90;;;;;;8117312;29;20111;-79
2023/09/13 13:17:35;;;;;;;6.65;5.10;;;24.60;99.90;;;;;;8103870;29;20439;-80
2023/09/13 13:21:36;;;;;;;5.80;3.55;;;24.50;99.90;;;;;;8108728;29;20032;-80
2023/09/13 13:25:36;;;;;;;5.35;3.45;;;24.40;99.90;;;;;;8110402;29;20039;-79
2023/09/13 13:29:38;;;;;;;7.25;3.53;;;24.00;99.90;;;;;;8111474;29;20043;-79
2023/09/13 13:33:39;;;;;;;4.60;3.42;;;23.90;99.90;;;;;;8127576;29;20032;-80
2023/09/13 13:37:46;;;;;;;4.20;3.78;;;24.00;99.90;;;;;;8110948;29;20071;-79
2023/09/13 13:41:47;;;;;;;5.32;4.00;;;24.00;99.90;;;;;;8109253;29;20496;-79
2023/09/13 13:45:48;;;;;;;4.30;3.28;;;23.60;99.90;;;;;;8124539;29;20031;-79
2023/09/13 13:49:49;;;;;;;4.93;3.65;;;23.20;99.90;;;;;;8124773;29;20024;-79
2023/09/13 13:53:49;;;;;;;3.75;2.90;;;22.60;99.90;;;;;;8110332;29;20028;-78
2023/09/13 13:57:50;;;;;;;3.10;2.80;;;22.00;99.90;;;;;;8109789;29;20097;-79
2023/09/13 14:01:50;;;;;;;4.78;2.80;;;21.20;99.90;;;;;;8121971;29;20070;-77
2023/09/13 14:05:52;;;;;;;4.57;3.35;;;20.20;99.90;;;;;;8122208;29;20040;-78
2023/09/13 14:09:52;;;;;;;5.57;3.85;;;19.60;99.90;;;;;;8121044;29;20028;-77
2023/09/13 14:13:53;;;;;;;5.97;4.57;;;19.20;99.90;;;;;;8131157;29;20091;-78
2023/09/13 14:17:53;;;;;;;7.60;5.38;;;18.80;99.90;;;;;;8139068;29;20056;-79
2023/09/13 14:21:54;;;;;;;7.93;5.32;;;18.70;99.90;;;;;;8153404;29;20039;-79
2023/09/13 14:25:54;;;;;;;12.18;6.32;;;18.40;99.90;;;;;;8153247;29;20028;-79
2023/09/13 14:29:55;;;;;;;8.82;6.75;;;18.30;99.90;;;;;;8136316;29;20041;-79
2023/09/13 14:33:56;;;;;;;7.97;6.72;;;18.20;99.90;;;;;;8152323;29;20032;-80
2023/09/13 14:37:56;;;;;;;11.60;6.88;;;18.40;99.90;;;;;;8156077;29;20442;-79
2023/09/13 14:41:57;;;;;;;8.15;7.00;;;18.40;99.90;;;;;;8153541;29;20546;-79
2023/09/13 14:45:57;;;;;;;7.00;5.70;;;18.30;99.90;;;;;;8137403;29;20024;-80
2023/09/13 14:49:58;;;;;;;7.72;5.60;;;18.40;99.90;;;;;;8153421;29;20024;-80
2023/09/13 14:53:58;;;;;;;8.55;5.20;;;18.40;99.90;;;;;;8138034;29;20503;-79
2023/09/13 14:57:59;;;;;;;6.70;5.13;;;18.40;99.90;;;;;;8136336;29;20040;-79
2023/09/13 15:02:00;;;;;;;7.28;5.38;;;18.40;99.90;;;;;;8150138;29;20518;-78
2023/09/13 15:06:01;;;;;;;8.25;5.97;;;18.50;99.90;;;;;;8136175;29;20055;-78
2023/09/13 15:10:01;;;;;;;6.75;4.80;;;18.70;99.90;;;;;;8134444;29;20026;-79
2023/09/13 15:14:03;;;;;;;5.97;5.28;;;18.80;99.90;;;;;;8135234;29;20036;-80
2023/09/13 15:18:04;;;;;;;5.97;5.05;;;18.80;99.90;;;;;;8134393;29;20020;-78
2023/09/13 15:22:04;;;;;;;8.23;5.53;;;19.10;99.90;;;;;;8137027;29;20079;-78
2023/09/13 15:26:05;;;;;;;7.57;4.60;;;19.10;99.90;;;;;;8136695;29;20137;-78
2023/09/13 15:30:08;;;;;;;9.77;5.45;;;19.00;99.90;;;;;;8137088;29;20095;-78
2023/09/13 15:34:10;;;;;;;6.68;4.72;;;18.90;99.90;;;;;;8147757;29;20054;-78
2023/09/13 15:38:10;;;;;;;6.97;4.90;;;19.10;99.90;;;;;;8150206;29;20289;-78
2023/09/13 15:42:11;;;;;;;6.70;5.00;;;19.10;99.90;;;;;;8136080;29;20485;-78
2023/09/13 15:46:15;;;;;;;6.13;5.05;;;18.90;99.90;;;;;;8148821;29;20059;-78
2023/09/13 15:50:15;;;;;;;9.07;6.05;;;18.90;99.90;;;;;;8150192;29;20040;-78
2023/09/13 15:54:17;;;;;;;7.25;5.70;;;18.80;99.90;;;;;;8137633;29;20039;-78
2023/09/13 15:58:17;;;;;;;8.15;5.88;;;18.70;99.90;;;;;;8148914;29;20028;-78
2023/09/13 16:02:18;;;;;;;6.70;6.00;;;18.60;99.90;;;;;;8132609;29;20046;-79
2023/09/13 16:06:18;;;;;;;8.10;6.65;;;18.50;99.90;;;;;;8134251;29;20028;-79
2023/09/13 16:10:22;;;;;;;11.65;7.95;;;18.40;99.90;;;;;;8163930;29;20040;-78
2023/09/13 16:14:34;;;;;;;10.68;7.07;;;18.50;99.90;;;;;;8135344;29;20498;-79
2023/09/13 16:18:34;;;;;;;8.57;7.25;;;18.50;99.90;;;;;;8135161;29;20038;-78
2023/09/13 16:22:35;;;;;;;10.38;8.13;;;18.50;99.90;;;;;;8147841;29;20028;-78
2023/09/13 16:26:35;;;;;;;12.45;7.55;;;18.70;99.90;;;;;;8134192;29;20031;-79
2023/09/13 16:30:36;;;;;;;11.68;7.47;;;18.70;99.90;;;;;;8149172;29;20028;-79
2023/09/13 16:34:36;;;;;;;10.52;8.13;;;18.70;99.90;;;;;;8134630;29;20444;-78
2023/09/13 16:38:37;;;;;;;10.65;8.52;;;18.50;99.90;;;;;;8132244;29;20425;-78
2023/09/13 16:42:38;;;;;;;11.48;7.70;;;18.40;99.90;;;;;;8133534;29;20028;-78
2023/09/13 16:46:39;;;;;;;9.57;7.20;;;18.40;99.90;;;;;;8134384;29;20030;-78
2023/09/13 16:50:39;;;;;;;8.40;7.50;;;18.50;99.90;;;;;;8149275;29;20056;-78
2023/09/13 16:54:40;;;;;;;9.52;7.47;;;18.60;99.90;;;;;;8131565;29;20407;-78
2023/09/13 16:58:41;;;;;;;9.65;6.80;;;18.20;99.90;;;;;;8150215;29;20404;-78
2023/09/13 17:02:41;;;;;;;11.20;7.15;;;18.10;99.90;;;;;;8130838;29;20554;-78
2023/09/13 17:06:42;;;;;;;10.63;7.80;;;18.20;99.90;;;;;;8136175;29;20052;-78
2023/09/13 17:10:42;;;;;;;11.80;7.90;;;17.90;99.90;;;;;;8131899;29;20448;-78
2023/09/13 17:14:43;;;;;;;11.60;7.68;;;17.90;99.90;;;;;;8132699;29;20046;-78
2023/09/13 17:18:43;;;;;;;48.88;15.77;;;17.80;99.90;;;;;;8147882;29;20032;-78
2023/09/13 17:22:44;;;;;;;11.77;7.28;;;17.70;99.90;;;;;;8134089;29;20437;-78
2023/09/13 17:26:44;;;;;;;9.38;7.75;;;17.60;99.90;;;;;;8148599;29;20051;-77
2023/09/13 17:30:45;;;;;;;9.85;7.18;;;17.50;99.90;;;;;;8133970;29;20047;-78
2023/09/13 17:34:45;;;;;;;9.32;7.40;;;17.50;99.90;;;;;;8133967;29;20032;-79
2023/09/13 17:38:46;;;;;;;8.95;6.82;;;17.40;99.90;;;;;;8133310;29;20064;-78
2023/09/13 17:42:46;;;;;;;8.43;7.50;;;17.60;99.90;;;;;;8148439;29;20028;-78
2023/09/13 17:46:47;;;;;;;9.95;8.15;;;17.40;99.90;;;;;;8148179;29;20501;-78
2023/09/13 17:50:48;;;;;;;10.52;8.23;;;17.20;99.90;;;;;;8148588;29;20035;-78
2023/09/13 17:54:48;;;;;;;12.23;8.48;;;17.00;99.90;;;;;;8132452;29;20024;-79
2023/09/13 17:58:49;;;;;;;12.52;8.15;;;16.90;99.90;;;;;;8133503;29;20024;-78
2023/09/13 18:02:49;;;;;;;12.25;9.10;;;16.80;99.90;;;;;;8147914;29;20020;-78
2023/09/13 18:06:50;;;;;;;11.23;8.60;;;16.70;99.90;;;;;;8147806;29;20024;-78
2023/09/13 18:10:50;;;;;;;15.73;8.27;;;16.70;99.90;;;;;;8139675;29;20508;-78
2023/09/13 18:14:51;;;;;;;12.63;9.00;;;16.80;99.90;;;;;;8153219;29;20047;-78
2023/09/13 18:18:51;;;;;;;12.00;8.57;;;16.80;99.90;;;;;;8137111;29;20511;-78
2023/09/13 18:22:52;;;;;;;15.60;8.57;;;16.70;99.90;;;;;;8156727;29;20036;-78
2023/09/13 18:26:53;;;;;;;14.75;8.38;;;16.80;99.90;;;;;;8136929;29;20111;-78
2023/09/13 18:31:03;;;;;;;11.30;7.97;;;16.80;99.90;;;;;;8153422;29;20084;-78
2023/09/13 18:35:04;;;;;;;16.27;7.82;;;16.90;99.90;;;;;;8138529;29;20028;-79
2023/09/13 18:39:05;;;;;;;13.25;8.70;;;16.90;99.90;;;;;;8150225;29;20036;-79
2023/09/13 18:43:05;;;;;;;17.38;8.15;;;16.80;99.90;;;;;;8136426;29;20028;-78
2023/09/13 18:47:06;;;;;;;10.20;7.85;;;16.70;99.90;;;;;;8136411;29;20031;-78
2023/09/13 18:51:06;;;;;;;11.15;8.30;;;16.50;99.90;;;;;;8150825;29;20032;-77
2023/09/13 18:55:08;;;;;;;14.32;9.80;;;16.40;99.90;;;;;;8135627;29;20115;-78
2023/09/13 18:59:09;;;;;;;15.70;10.13;;;16.30;99.90;;;;;;8135904;29;20028;-78
2023/09/13 19:03:10;;;;;;;12.95;9.32;;;16.20;99.90;;;;;;8135938;29;20072;-78
2023/09/13 19:07:11;;;;;;;19.85;11.15;;;16.20;99.90;;;;;;8132216;29;20075;-79
2023/09/13 19:11:13;;;;;;;17.35;10.48;;;16.20;99.90;;;;;;8134683;29;20040;-79
2023/09/13 19:15:14;;;;;;;17.95;11.93;;;16.20;99.90;;;;;;8149577;29;20112;-78
2023/09/13 19:19:14;;;;;;;17.23;9.65;;;16.20;99.90;;;;;;8133284;29;20040;-78
2023/09/13 19:23:15;;;;;;;13.27;9.23;;;16.50;99.90;;;;;;8136069;29;20552;-78
2023/09/13 19:27:15;;;;;;;18.38;11.07;;;16.60;99.90;;;;;;8132101;29;20079;-78
2023/09/13 19:31:16;;;;;;;16.27;11.95;;;16.50;99.90;;;;;;8136522;29;20040;-76
2023/09/13 19:35:17;;;;;;;14.82;10.50;;;16.60;99.90;;;;;;8131603;29;20036;-78
2023/09/13 19:39:17;;;;;;;15.18;10.55;;;17.10;99.90;;;;;;8140167;29;20148;-78
2023/09/13 19:43:18;;;;;;;16.45;11.30;;;17.00;99.90;;;;;;8134692;29;20032;-78
2023/09/13 19:47:19;;;;;;;14.77;11.20;;;16.70;99.90;;;;;;8144389;29;20047;-78
2023/09/13 19:51:21;;;;;;;12.75;8.85;;;16.80;99.90;;;;;;8151926;29;20024;-78
2023/09/13 19:55:22;;;;;;;11.63;9.48;;;17.20;99.90;;;;;;8138472;29;20031;-78
2023/09/13 19:59:22;;;;;;;10.20;8.48;;;17.20;99.90;;;;;;8157182;29;20039;-78
2023/09/13 20:03:23;;;;;;;14.50;9.05;;;17.30;99.90;;;;;;8153616;29;20027;-77
2023/09/13 20:07:24;;;;;;;12.90;8.80;;;17.30;99.90;;;;;;8149679;29;20484;-78
2023/09/13 20:11:25;;;;;;;14.00;8.85;;;17.40;99.90;;;;;;8146975;29;20080;-78
2023/09/13 20:15:26;;;;;;;12.98;9.68;;;17.30;99.90;;;;;;8133555;29;20404;-77
2023/09/13 20:19:26;;;;;;;16.05;10.48;;;17.00;99.90;;;;;;8136991;29;20036;-79
2023/09/13 20:23:28;;;;;;;15.00;10.52;;;16.80;99.90;;;;;;8149820;29;20024;-79
2023/09/13 20:27:28;;;;;;;15.88;12.05;;;16.60;99.90;;;;;;8149635;29;20051;-79
2023/09/13 20:31:31;;;;;;;16.42;12.10;;;16.40;99.90;;;;;;8135355;29;20396;-79
2023/09/13 20:35:31;;;;;;;16.13;12.13;;;16.40;99.90;;;;;;8134938;29;20040;-79
2023/09/13 20:39:32;;;;;;;17.50;12.15;;;16.50;99.90;;;;;;8149829;29;20046;-79
2023/09/13 20:43:33;;;;;;;19.23;13.32;;;16.40;99.90;;;;;;8134870;29;20024;-79
2023/09/13 20:47:34;;;;;;;17.75;12.35;;;16.40;99.90;;;;;;8149304;29;20048;-78